createdAt,value
2019-03-28T00:01:25.143Z,11.00
2019-03-28T00:03:53.684Z,11.22
2019-03-28T00:06:22.050Z,11.48
2019-03-28T00:08:50.432Z,11.60
2019-03-28T00:11:18.857Z,12.50
2019-03-28T00:13:47.232Z,11.87
2019-03-28T00:16:15.676Z,11.30
2019-03-28T00:18:44.076Z,12.23
2019-03-28T00:21:12.482Z,12.57
2019-03-28T00:23:42.541Z,11.60
2019-03-28T00:26:11.020Z,11.85
2019-03-28T00:28:39.390Z,13.37
2019-03-28T00:31:07.802Z,11.60
2019-03-28T00:33:36.282Z,11.88
2019-03-28T00:36:04.771Z,12.10
2019-03-28T00:38:33.201Z,11.30
2019-03-28T00:41:01.607Z,10.50
2019-03-28T00:43:30.009Z,9.57
2019-03-28T00:45:58.618Z,11.40
2019-03-28T00:48:27.212Z,14.60
2019-03-28T00:50:55.829Z,14.33
2019-03-28T00:53:24.257Z,14.13
2019-03-28T00:55:52.668Z,13.73
2019-03-28T00:58:21.082Z,14.40
2019-03-28T01:00:49.605Z,14.37
2019-03-28T01:03:18.030Z,14.25
2019-03-28T01:05:46.566Z,13.90
2019-03-28T01:08:14.942Z,13.57
2019-03-28T01:10:43.486Z,13.13
2019-03-28T01:13:11.933Z,12.28
2019-03-28T01:15:40.333Z,12.50
2019-03-28T01:18:08.751Z,11.80
2019-03-28T01:20:37.153Z,11.53
2019-03-28T01:23:05.529Z,12.37
2019-03-28T01:25:33.901Z,12.13
2019-03-28T01:28:02.246Z,11.78
2019-03-28T01:30:30.764Z,12.60
2019-03-28T01:32:59.097Z,12.23
2019-03-28T01:35:27.589Z,11.73
2019-03-28T01:37:55.993Z,14.95
2019-03-28T01:40:24.398Z,14.90
2019-03-28T01:42:52.781Z,11.27
2019-03-28T01:45:21.185Z,12.23
2019-03-28T01:47:49.687Z,11.97
2019-03-28T01:50:18.087Z,12.58
2019-03-28T01:52:48.708Z,11.73
2019-03-28T01:55:17.209Z,12.20
2019-03-28T01:57:45.585Z,12.70
2019-03-28T02:00:14.053Z,14.73
2019-03-28T02:02:42.437Z,15.23
2019-03-28T02:05:11.102Z,15.17
2019-03-28T02:07:39.472Z,14.40
2019-03-28T02:10:07.882Z,15.17
2019-03-28T02:12:36.446Z,13.37
2019-03-28T02:15:07.484Z,14.38
2019-03-28T02:17:35.898Z,14.07
2019-03-28T02:20:06.036Z,13.62
2019-03-28T02:22:34.506Z,14.13
2019-03-28T02:25:02.906Z,14.58
2019-03-28T02:27:31.338Z,14.07
2019-03-28T02:29:59.742Z,14.07
2019-03-28T02:32:28.125Z,14.87
2019-03-28T02:35:14.617Z,15.07
2019-03-28T02:37:43.028Z,14.60
2019-03-28T02:49:52.406Z,16.23
2019-03-28T02:52:21.545Z,16.00
2019-03-28T02:54:50.144Z,15.35
2019-03-28T02:57:18.526Z,14.85
2019-03-28T02:59:46.958Z,15.53
2019-03-28T03:02:18.297Z,13.73
2019-03-28T03:04:46.737Z,15.18
2019-03-28T03:07:15.147Z,22.25
2019-03-28T03:09:43.568Z,23.83
2019-03-28T03:12:12.112Z,22.93
2019-03-28T03:14:41.518Z,21.30
2019-03-28T03:17:09.922Z,20.88
2019-03-28T03:19:38.305Z,21.95
2019-03-28T03:22:06.820Z,20.30
2019-03-28T03:24:35.211Z,18.20
2019-03-28T03:27:03.658Z,17.87
2019-03-28T03:29:32.096Z,16.85
2019-03-28T03:32:00.504Z,17.10
2019-03-28T03:34:28.930Z,16.20
2019-03-28T03:36:57.395Z,15.65
2019-03-28T03:39:25.983Z,14.70
2019-03-28T03:41:54.493Z,16.17
2019-03-28T03:44:22.942Z,15.48
2019-03-28T03:46:51.355Z,16.73
2019-03-28T03:49:19.760Z,14.33
2019-03-28T03:51:48.206Z,15.18
2019-03-28T03:54:16.628Z,15.50
2019-03-28T03:56:45.208Z,17.73
2019-03-28T03:59:13.593Z,17.52
2019-03-28T04:01:41.965Z,16.33
2019-03-28T04:04:10.366Z,14.77
2019-03-28T04:06:38.747Z,16.10
2019-03-28T04:09:07.475Z,15.38
2019-03-28T04:11:35.906Z,15.23
2019-03-28T04:14:04.684Z,13.22
2019-03-28T04:16:33.069Z,14.38
2019-03-28T04:19:01.457Z,14.20
2019-03-28T04:21:29.882Z,13.48
2019-03-28T04:23:58.274Z,15.60
2019-03-28T04:26:27.426Z,16.32
2019-03-28T04:28:55.851Z,15.88
2019-03-28T04:31:24.269Z,16.47
2019-03-28T04:33:52.735Z,16.57
2019-03-28T04:36:21.117Z,16.10
2019-03-28T04:38:50.539Z,16.62
2019-03-28T04:41:19.168Z,17.02
2019-03-28T04:43:47.537Z,19.77
2019-03-28T04:46:15.950Z,24.30
2019-03-28T04:48:44.401Z,19.87
2019-03-28T04:51:14.143Z,19.27
2019-03-28T04:53:42.551Z,17.48
2019-03-28T04:56:10.987Z,18.30
2019-03-28T04:58:44.636Z,16.12
2019-03-28T05:01:09.462Z,18.23
2019-03-28T05:03:37.849Z,18.12
2019-03-28T05:06:06.270Z,18.20
2019-03-28T05:08:34.687Z,15.43
2019-03-28T05:11:03.065Z,13.40
2019-03-28T05:13:31.452Z,14.70
2019-03-28T05:15:59.871Z,13.63
2019-03-28T05:18:28.265Z,10.37
2019-03-28T05:20:56.693Z,11.50
2019-03-28T05:23:25.107Z,11.10
2019-03-28T05:25:53.515Z,9.60
2019-03-28T05:28:21.925Z,9.35
2019-03-28T05:30:50.330Z,12.80
2019-03-28T05:33:18.738Z,10.87
2019-03-28T05:35:47.173Z,11.53
2019-03-28T05:38:15.556Z,10.20
2019-03-28T05:40:44.025Z,9.33
2019-03-28T05:43:14.086Z,14.78
2019-03-28T05:45:42.676Z,9.78
2019-03-28T05:48:11.025Z,9.73
2019-03-28T05:50:39.442Z,8.73
2019-03-28T05:53:07.895Z,9.03
2019-03-28T05:55:36.306Z,9.03
2019-03-28T05:58:04.720Z,8.00
2019-03-28T06:00:38.792Z,8.07
2019-03-28T06:03:04.495Z,7.50
2019-03-28T06:05:32.888Z,7.83
2019-03-28T06:08:01.270Z,7.03
2019-03-28T06:10:29.658Z,7.63
2019-03-28T06:12:58.275Z,7.77
2019-03-28T06:15:26.642Z,8.03
2019-03-28T06:17:55.052Z,8.65
2019-03-28T06:20:23.453Z,7.67
2019-03-28T06:22:51.865Z,9.43
2019-03-28T06:25:20.273Z,11.10
2019-03-28T06:27:48.691Z,12.63
2019-03-28T06:30:17.098Z,12.80
2019-03-28T06:32:45.652Z,11.87
2019-03-28T06:35:14.032Z,11.35
2019-03-28T06:37:42.406Z,13.90
2019-03-28T06:40:10.805Z,13.27
2019-03-28T06:42:39.371Z,12.10
2019-03-28T06:45:07.985Z,11.70
2019-03-28T06:47:36.537Z,11.78
2019-03-28T06:50:07.869Z,12.13
2019-03-28T06:52:36.470Z,12.85
2019-03-28T06:55:05.214Z,12.73
2019-03-28T06:57:33.631Z,12.18
2019-03-28T07:00:02.006Z,11.43
2019-03-28T07:02:30.442Z,12.20
2019-03-28T07:04:58.811Z,11.80
2019-03-28T07:07:27.148Z,12.33
2019-03-28T07:09:55.535Z,12.80
2019-03-28T07:12:23.915Z,13.80
2019-03-28T07:14:52.329Z,13.67
2019-03-28T07:17:20.739Z,12.70
2019-03-28T07:19:49.178Z,12.73
2019-03-28T07:22:17.581Z,12.23
2019-03-28T07:24:45.985Z,12.60
2019-03-28T07:27:14.368Z,11.20
2019-03-28T07:29:50.743Z,11.67
2019-03-28T07:32:12.919Z,11.57
2019-03-28T07:34:41.334Z,12.65
2019-03-28T07:37:09.706Z,12.37
2019-03-28T07:39:38.193Z,10.57
2019-03-28T07:42:06.620Z,9.83
2019-03-28T07:44:37.506Z,8.30
2019-03-28T07:47:05.055Z,10.08
2019-03-28T07:49:33.437Z,10.13
2019-03-28T07:52:01.854Z,10.53
2019-03-28T07:54:30.229Z,11.00
2019-03-28T07:56:58.650Z,10.47
2019-03-28T07:59:27.046Z,9.50
2019-03-28T08:01:55.424Z,9.17
2019-03-28T08:04:23.797Z,9.93
2019-03-28T08:06:52.143Z,9.83
2019-03-28T08:09:20.570Z,9.33
2019-03-28T08:11:48.984Z,9.97
2019-03-28T08:14:17.369Z,10.87
2019-03-28T08:16:45.779Z,9.00
2019-03-28T08:19:14.177Z,9.30
2019-03-28T08:21:42.577Z,9.18
2019-03-28T08:24:11.161Z,8.70
2019-03-28T08:26:39.637Z,8.83
2019-03-28T08:29:08.017Z,8.67
2019-03-28T08:31:40.718Z,8.87
2019-03-28T08:34:08.395Z,8.70
2019-03-28T08:36:36.957Z,7.73
2019-03-28T08:39:06.732Z,8.23
2019-03-28T08:41:35.125Z,7.55
2019-03-28T08:44:03.533Z,6.87
2019-03-28T08:46:32.092Z,7.43
2019-03-28T08:49:00.486Z,6.03
2019-03-28T08:51:28.925Z,6.42
2019-03-28T08:53:57.353Z,5.65
2019-03-28T08:56:25.751Z,5.57
2019-03-28T08:58:54.166Z,5.83
2019-03-28T09:01:23.172Z,6.90
2019-03-28T09:03:51.570Z,7.17
2019-03-28T09:06:20.133Z,7.55
2019-03-28T09:08:48.597Z,6.33
2019-03-28T09:11:17.034Z,7.33
2019-03-28T09:13:45.373Z,7.10
2019-03-28T09:16:13.795Z,7.78
2019-03-28T09:18:42.349Z,7.40
2019-03-28T09:21:10.927Z,6.83
2019-03-28T09:23:39.298Z,7.00
2019-03-28T09:26:07.711Z,7.42
2019-03-28T09:28:36.115Z,7.58
2019-03-28T09:31:04.530Z,8.27
2019-03-28T09:33:32.909Z,8.38
2019-03-28T09:36:01.305Z,7.75
2019-03-28T09:38:29.727Z,8.30
2019-03-28T09:40:58.140Z,7.28
2019-03-28T09:43:26.548Z,20.55
2019-03-28T09:45:55.001Z,6.53
2019-03-28T09:48:23.358Z,5.47
2019-03-28T09:50:51.739Z,5.85
2019-03-28T09:53:20.142Z,6.50
2019-03-28T09:55:48.594Z,7.43
2019-03-28T09:58:16.993Z,6.50
2019-03-28T10:00:45.494Z,5.97
2019-03-28T10:03:13.903Z,5.83
2019-03-28T10:05:42.319Z,6.25
2019-03-28T10:08:10.682Z,5.83
2019-03-28T10:10:39.065Z,6.47
2019-03-28T10:13:07.550Z,5.40
2019-03-28T10:15:37.128Z,5.83
2019-03-28T10:18:05.683Z,6.70
2019-03-28T10:20:34.057Z,4.90
2019-03-28T10:23:02.538Z,5.08
2019-03-28T10:25:30.923Z,4.10
2019-03-28T10:27:59.273Z,4.15
2019-03-28T10:30:39.126Z,4.08
2019-03-28T10:33:07.877Z,4.08
2019-03-28T10:35:36.293Z,4.15
2019-03-28T10:38:05.559Z,4.62
2019-03-28T10:40:34.099Z,4.00
2019-03-28T10:43:02.682Z,3.57
2019-03-28T10:45:33.606Z,4.30
2019-03-28T10:48:01.207Z,3.92
2019-03-28T10:50:40.183Z,4.03
2019-03-28T10:52:59.683Z,4.05
2019-03-28T10:55:28.057Z,4.00
2019-03-28T10:57:56.493Z,3.58
2019-03-28T11:00:25.859Z,4.60
2019-03-28T11:02:54.470Z,4.20
2019-03-28T11:05:23.004Z,4.70
2019-03-28T11:07:51.444Z,4.57
2019-03-28T11:10:19.844Z,5.10
2019-03-28T11:12:48.343Z,5.17
2019-03-28T11:15:16.822Z,4.63
2019-03-28T11:17:45.190Z,4.83
2019-03-28T11:20:13.645Z,4.70
2019-03-28T11:22:42.051Z,4.90
2019-03-28T11:25:10.459Z,5.42
2019-03-28T11:27:38.843Z,5.33
2019-03-28T11:30:08.128Z,4.75
2019-03-28T11:32:36.567Z,4.60
2019-03-28T11:35:08.454Z,4.70
2019-03-28T11:37:37.218Z,4.75
2019-03-28T11:40:09.237Z,5.03
2019-03-28T11:42:37.675Z,4.20
2019-03-28T11:45:09.279Z,4.03
2019-03-28T11:47:37.254Z,3.92
2019-03-28T11:50:08.370Z,4.17
2019-03-28T11:52:37.098Z,3.42
2019-03-28T11:55:07.121Z,3.27
2019-03-28T11:57:36.462Z,3.67
2019-03-28T12:05:02.026Z,3.30
2019-03-28T12:07:30.437Z,3.40
2019-03-28T12:09:58.850Z,3.10
2019-03-28T12:12:27.282Z,2.95
2019-03-28T12:14:55.691Z,2.80
2019-03-28T12:17:24.069Z,2.12
2019-03-28T12:19:52.482Z,2.45
2019-03-28T12:22:20.925Z,2.23
2019-03-28T12:24:49.478Z,2.90
2019-03-28T12:27:17.816Z,1.90
2019-03-28T12:29:46.229Z,1.50
2019-03-28T12:32:14.756Z,1.30
2019-03-28T12:34:43.252Z,1.70
2019-03-28T12:37:11.749Z,1.75
2019-03-28T12:39:40.146Z,1.40
2019-03-28T12:42:08.572Z,5.47
2019-03-28T12:44:36.970Z,1.40
2019-03-28T12:47:05.373Z,1.80
2019-03-28T12:49:33.742Z,1.30
2019-03-28T12:52:02.182Z,1.27
2019-03-28T12:54:30.549Z,1.60
2019-03-28T12:56:59.090Z,1.37
2019-03-28T12:59:27.459Z,1.50
2019-03-28T13:01:55.870Z,1.25
2019-03-28T13:04:24.278Z,1.43
2019-03-28T13:06:52.654Z,1.75
2019-03-28T13:09:21.033Z,1.40
2019-03-28T13:11:49.417Z,2.80
2019-03-28T13:14:17.830Z,2.30
2019-03-28T13:16:46.201Z,2.27
2019-03-28T13:19:14.581Z,1.77
2019-03-28T13:21:43.029Z,5.80
2019-03-28T13:24:11.555Z,2.10
2019-03-28T13:26:39.949Z,2.30
2019-03-28T13:29:08.529Z,1.62
2019-03-28T13:31:36.989Z,1.22
2019-03-28T13:34:05.399Z,2.35
2019-03-28T13:36:33.813Z,3.03
2019-03-28T13:39:02.218Z,4.70
2019-03-28T13:41:30.622Z,1.90
2019-03-28T13:43:58.988Z,1.45
2019-03-28T13:46:27.411Z,1.60
2019-03-28T13:48:55.839Z,1.80
2019-03-28T13:51:24.202Z,2.00
2019-03-28T13:53:53.754Z,2.42
2019-03-28T13:56:22.383Z,6.60
2019-03-28T13:58:50.762Z,2.58
2019-03-28T14:01:19.190Z,2.47
2019-03-28T14:03:47.582Z,2.35
2019-03-28T14:06:15.965Z,1.43
2019-03-28T14:08:44.342Z,1.70
2019-03-28T14:11:12.746Z,1.37
2019-03-28T14:13:41.274Z,1.67
2019-03-28T14:16:09.678Z,8.33
2019-03-28T14:18:38.094Z,2.30
2019-03-28T14:21:06.482Z,2.15
2019-03-28T14:23:35.554Z,2.10
2019-03-28T14:26:03.930Z,1.40
2019-03-28T14:28:32.333Z,1.87
2019-03-28T14:31:01.057Z,1.92
2019-03-28T14:33:29.629Z,1.98
2019-03-28T14:35:58.115Z,2.33
2019-03-28T14:38:26.594Z,1.30
2019-03-28T14:40:57.033Z,1.23
2019-03-28T14:43:25.016Z,1.77
2019-03-28T14:45:53.401Z,1.55
2019-03-28T14:48:21.859Z,2.25
2019-03-28T14:50:50.334Z,1.37
2019-03-28T14:53:21.993Z,1.40
2019-03-28T14:55:48.837Z,1.92
2019-03-28T14:58:17.416Z,1.50
2019-03-28T15:00:50.994Z,2.35
2019-03-28T15:03:26.176Z,1.90
2019-03-28T15:05:49.437Z,1.98
2019-03-28T15:08:18.428Z,2.13
2019-03-28T15:10:46.832Z,1.25
2019-03-28T15:13:15.237Z,1.90
2019-03-28T15:15:43.634Z,2.42
2019-03-28T15:18:12.063Z,2.05
2019-03-28T15:20:40.602Z,2.10
2019-03-28T15:23:08.993Z,1.63
2019-03-28T15:25:37.464Z,1.27
2019-03-28T15:28:05.857Z,1.80
2019-03-28T15:30:34.247Z,1.95
2019-03-28T15:33:02.670Z,1.95
2019-03-28T15:35:31.182Z,1.77
2019-03-28T15:37:59.694Z,2.80
2019-03-28T15:40:28.137Z,2.10
2019-03-28T15:42:56.590Z,2.50
2019-03-28T15:45:24.993Z,2.40
2019-03-28T15:47:53.390Z,2.00
2019-03-28T15:50:21.804Z,2.20
2019-03-28T15:52:50.184Z,2.17
2019-03-28T15:55:18.602Z,2.95
2019-03-28T15:57:47.007Z,5.78
2019-03-28T16:00:15.617Z,2.95
2019-03-28T16:02:44.025Z,3.10
2019-03-28T16:05:12.401Z,2.98
2019-03-28T16:07:40.857Z,3.30
2019-03-28T16:10:09.264Z,2.37
2019-03-28T16:12:37.663Z,2.35
2019-03-28T16:15:07.542Z,2.65
2019-03-28T16:17:35.945Z,2.58
2019-03-28T16:20:05.590Z,4.62
2019-03-28T16:22:34.003Z,4.22
2019-03-28T16:25:02.369Z,4.25
2019-03-28T16:27:30.778Z,4.70
2019-03-28T16:29:59.389Z,3.67
2019-03-28T16:32:28.373Z,3.12
2019-03-28T16:34:57.342Z,2.60
2019-03-28T16:37:25.728Z,7.55
2019-03-28T16:39:54.142Z,5.28
2019-03-28T16:42:22.532Z,4.53
2019-03-28T16:44:50.871Z,5.55
2019-03-28T16:47:19.384Z,4.45
2019-03-28T16:49:47.785Z,6.50
2019-03-28T16:52:16.182Z,5.70
2019-03-28T16:54:44.593Z,7.75
2019-03-28T16:57:13.033Z,4.13
2019-03-28T16:59:41.426Z,3.58
2019-03-28T17:02:09.831Z,2.80
2019-03-28T17:04:38.273Z,3.95
2019-03-28T17:07:07.545Z,6.13
2019-03-28T17:09:37.690Z,3.83
2019-03-28T17:12:06.790Z,3.90
2019-03-28T17:14:35.130Z,10.53
2019-03-28T17:17:03.633Z,4.75
2019-03-28T17:19:32.074Z,6.60
2019-03-28T17:22:00.602Z,4.20
2019-03-28T17:24:28.969Z,37.90
2019-03-28T17:26:57.349Z,13.83
2019-03-28T17:29:25.731Z,7.90
2019-03-28T17:31:54.148Z,6.50
2019-03-28T17:34:34.049Z,9.13
2019-03-28T17:36:52.549Z,5.78
2019-03-28T17:39:20.960Z,4.83
2019-03-28T17:41:49.395Z,4.43
2019-03-28T17:44:17.840Z,7.60
2019-03-28T17:46:46.221Z,20.10
2019-03-28T17:49:14.681Z,8.80
2019-03-28T17:51:43.041Z,6.03
2019-03-28T17:54:11.955Z,6.50
2019-03-28T17:56:40.565Z,4.12
2019-03-28T17:59:08.962Z,3.72
2019-03-28T18:01:37.495Z,3.03
2019-03-28T18:04:06.870Z,3.10
2019-03-28T18:06:35.348Z,10.20
2019-03-28T18:09:05.878Z,4.95
2019-03-28T18:11:34.274Z,2.55
2019-03-28T18:14:02.687Z,2.87
2019-03-28T18:16:31.098Z,2.40
2019-03-28T18:18:59.497Z,2.07
2019-03-28T18:21:27.948Z,2.35
2019-03-28T18:23:56.497Z,2.33
2019-03-28T18:26:25.135Z,2.85
2019-03-28T18:28:54.114Z,3.42
2019-03-28T18:31:22.543Z,2.80
2019-03-28T18:33:50.974Z,3.37
2019-03-28T18:36:19.403Z,3.50
2019-03-28T18:38:47.789Z,3.70
2019-03-28T18:41:16.165Z,4.37
2019-03-28T18:43:44.569Z,3.67
2019-03-28T18:46:14.703Z,3.97
2019-03-28T18:48:43.043Z,3.15
2019-03-28T18:51:11.446Z,3.67
2019-03-28T18:53:39.851Z,3.33
2019-03-28T18:56:08.367Z,6.43
2019-03-28T18:58:36.855Z,2.70
2019-03-28T19:01:05.249Z,2.80
2019-03-28T19:03:33.624Z,2.45
2019-03-28T19:06:02.052Z,1.90
2019-03-28T19:08:30.459Z,2.07
2019-03-28T19:10:58.853Z,2.60
2019-03-28T19:13:27.262Z,2.30
2019-03-28T19:15:55.645Z,2.40
2019-03-28T19:18:24.045Z,2.27
2019-03-28T19:20:52.480Z,2.60
2019-03-28T19:23:20.946Z,2.67
2019-03-28T19:25:49.387Z,2.23
2019-03-28T19:28:28.126Z,1.97
2019-03-28T19:30:47.820Z,2.30
2019-03-28T19:33:16.258Z,2.77
2019-03-28T19:35:44.692Z,3.13
2019-03-28T19:38:13.170Z,3.70
2019-03-28T19:40:41.529Z,4.27
2019-03-28T19:43:20.480Z,4.62
2019-03-28T19:45:40.150Z,4.37
2019-03-28T19:48:08.546Z,4.25
2019-03-28T19:50:37.002Z,5.17
2019-03-28T19:53:05.388Z,5.60
2019-03-28T19:55:33.770Z,4.92
2019-03-28T19:58:02.192Z,3.58
2019-03-28T20:00:30.585Z,2.33
2019-03-28T20:03:00.546Z,2.08
2019-03-28T20:05:29.034Z,2.00
2019-03-28T20:07:57.451Z,1.70
2019-03-28T20:10:25.842Z,2.42
2019-03-28T20:12:54.279Z,2.07
2019-03-28T20:15:22.628Z,1.97
2019-03-28T20:17:51.035Z,2.10
2019-03-28T20:20:19.479Z,2.10
2019-03-28T20:22:47.848Z,2.73
2019-03-28T20:25:16.231Z,2.98
2019-03-28T20:27:44.634Z,3.30
2019-03-28T20:30:13.038Z,2.58
2019-03-28T20:32:41.405Z,2.73
2019-03-28T20:35:10.752Z,2.13
2019-03-28T20:37:39.399Z,4.00
2019-03-28T20:40:08.006Z,2.30
2019-03-28T20:42:36.442Z,2.58
2019-03-28T20:45:06.677Z,2.80
2019-03-28T20:47:35.069Z,3.00
2019-03-28T20:50:05.751Z,2.40
2019-03-28T20:52:34.154Z,2.50
2019-03-28T20:55:02.529Z,2.70
2019-03-28T20:57:30.893Z,2.45
2019-03-28T20:59:59.299Z,2.20
2019-03-28T21:02:27.695Z,2.53
2019-03-28T21:04:56.102Z,2.65
2019-03-28T21:07:24.517Z,3.00
2019-03-28T21:09:52.884Z,3.73
2019-03-28T21:12:21.217Z,3.42
2019-03-28T21:14:49.627Z,2.37
2019-03-28T21:17:18.058Z,2.97
2019-03-28T21:19:46.478Z,3.27
2019-03-28T21:22:14.851Z,3.95
2019-03-28T21:24:43.188Z,3.13
2019-03-28T21:27:11.613Z,3.47
2019-03-28T21:29:48.894Z,3.20
2019-03-28T21:32:10.221Z,3.12
2019-03-28T21:34:38.636Z,3.27
2019-03-28T21:37:07.095Z,3.47
2019-03-28T21:39:35.479Z,2.73
2019-03-28T21:42:06.973Z,2.50
2019-03-28T21:44:34.023Z,3.30
2019-03-28T21:47:02.373Z,3.10
2019-03-28T21:49:30.780Z,2.90
2019-03-28T21:51:59.153Z,2.60
2019-03-28T21:54:27.558Z,2.60
2019-03-28T21:56:55.978Z,2.70
2019-03-28T21:59:24.399Z,3.20
2019-03-28T22:01:52.800Z,2.80
2019-03-28T22:04:21.188Z,2.60
2019-03-28T22:06:49.737Z,2.80
2019-03-28T22:09:18.206Z,3.02
2019-03-28T22:11:46.599Z,2.10
2019-03-28T22:14:15.045Z,2.50
2019-03-28T22:16:43.446Z,3.23
2019-03-28T22:19:11.844Z,3.77
2019-03-28T22:21:40.209Z,2.67
2019-03-28T22:24:08.766Z,2.70
2019-03-28T22:26:37.161Z,3.08
2019-03-28T22:29:05.531Z,2.90
2019-03-28T22:31:33.964Z,2.87
2019-03-28T22:34:02.311Z,2.58
2019-03-28T22:36:30.680Z,2.67
2019-03-28T22:38:59.019Z,2.42
2019-03-28T22:41:27.400Z,3.00
2019-03-28T22:43:55.843Z,2.93
2019-03-28T22:46:24.244Z,2.50
2019-03-28T22:48:52.615Z,3.58
2019-03-28T22:51:21.025Z,2.98
2019-03-28T22:53:49.397Z,2.93
2019-03-28T22:56:17.802Z,3.40
2019-03-28T22:58:46.175Z,2.73
2019-03-28T23:01:14.665Z,2.65
2019-03-28T23:03:43.166Z,3.33
2019-03-28T23:06:11.599Z,2.92
2019-03-28T23:08:39.973Z,3.10
2019-03-28T23:11:08.353Z,3.27
2019-03-28T23:13:36.848Z,3.10
2019-03-28T23:16:05.218Z,2.97
2019-03-28T23:18:33.622Z,3.25
2019-03-28T23:21:02.022Z,3.33
2019-03-28T23:23:30.385Z,3.27
2019-03-28T23:25:58.795Z,3.43
2019-03-28T23:28:27.238Z,3.40
2019-03-28T23:30:55.606Z,3.50
2019-03-28T23:33:24.112Z,3.20
2019-03-28T23:35:52.478Z,2.90
2019-03-28T23:38:20.846Z,3.50
2019-03-28T23:40:49.261Z,3.55
2019-03-28T23:43:17.662Z,3.80
2019-03-28T23:45:46.071Z,4.20
2019-03-28T23:48:14.474Z,3.87
2019-03-28T23:50:42.871Z,4.17
2019-03-28T23:53:11.262Z,4.78
2019-03-28T23:55:39.627Z,4.62
2019-03-28T23:58:08.056Z,4.23
